Time;durP1;ratioP1;P1;durP2;ratioP2;P2;SDS_P1;SDS_P2;PMS_P1;PMS_P2;Temp;Humidity;BMP_temperature;BMP_pressure;BME280_temperature;BME280_humidity;BME280_pressure;Samples;Min_cycle;Max_cycle;Signal;HPM_P1;HPM_P2
2023/12/01 00:00:29;;;;;;;2.90;2.80;;;;;;;3.87;100.00;93719.09;4304794;32;20294;-62
2023/12/01 00:02:55;;;;;;;2.83;2.70;;;;;;;3.90;100.00;93724.53;4340446;32;20315;-62
2023/12/01 00:05:20;;;;;;;3.60;3.27;;;;;;;3.97;100.00;93711.78;4319180;32;20474;-62
2023/12/01 00:07:46;;;;;;;3.17;2.97;;;;;;;4.03;100.00;93722.97;4330334;32;20194;-62
2023/12/01 00:10:13;;;;;;;5.40;4.43;;;;;;;4.08;100.00;93707.16;4356959;32;20188;-62
2023/12/01 00:12:42;;;;;;;3.50;3.30;;;;;;;3.84;100.00;93704.72;4339840;32;20280;-62
2023/12/01 00:15:14;;;;;;;3.60;3.00;;;;;;;3.85;100.00;93706.28;4345063;32;20356;-62
2023/12/01 00:17:40;;;;;;;2.60;2.50;;;;;;;4.22;100.00;93715.00;4336567;32;20289;-62
2023/12/01 00:20:07;;;;;;;3.30;2.93;;;;;;;4.14;100.00;93719.87;4341365;32;20297;-62
2023/12/01 00:22:33;;;;;;;4.47;4.07;;;;;;;4.05;100.00;93721.63;4351125;32;20212;-62
2023/12/01 00:24:59;;;;;;;2.87;2.47;;;;;;;3.75;100.00;93711.69;4340812;32;20282;-62
2023/12/01 00:27:24;;;;;;;2.37;2.37;;;;;;;4.05;100.00;93721.63;4344002;32;20294;-62
2023/12/01 00:29:49;;;;;;;3.63;3.33;;;;;;;4.08;100.00;93715.78;4311322;32;20311;-62
2023/12/01 00:32:17;;;;;;;2.33;2.23;;;;;;;4.10;100.00;93713.66;4327839;32;20247;-62
2023/12/01 00:34:43;;;;;;;3.73;3.43;;;;;;;3.96;100.00;93712.87;4321152;32;20272;-62
2023/12/01 00:37:22;;;;;;;3.00;2.80;;;;;;;4.14;100.00;93709.38;4323231;32;20291;-62
2023/12/01 00:39:50;;;;;;;3.43;3.13;;;;;;;4.16;100.00;93713.56;4328506;32;20304;-62
2023/12/01 00:42:17;;;;;;;3.23;3.13;;;;;;;4.23;100.00;93716.56;4325311;32;20295;-62
2023/12/01 00:44:45;;;;;;;1.93;1.63;;;;;;;4.25;100.00;93717.03;4319701;32;20301;-62
2023/12/01 00:47:11;;;;;;;2.47;2.37;;;;;;;4.15;100.00;93707.53;4341658;32;20281;-62
2023/12/01 00:49:38;;;;;;;2.10;2.00;;;;;;;4.12;100.00;93703.66;4319963;32;20328;-62
2023/12/01 00:52:05;;;;;;;3.83;3.37;;;;;;;4.17;100.00;93707.22;4336932;32;20289;-62
2023/12/01 00:54:53;;;;;;;2.40;2.30;;;;;;;4.02;100.00;93689.94;4332714;32;20203;-63
2023/12/01 00:57:22;;;;;;;2.63;2.53;;;;;;;3.96;100.00;93701.59;4311512;32;20305;-62
2023/12/01 00:59:49;;;;;;;3.27;3.07;;;;;;;3.95;100.00;93703.44;4322588;32;20324;-62
2023/12/01 01:02:14;;;;;;;4.57;4.17;;;;;;;4.12;100.00;93701.03;4332973;32;20340;-62
2023/12/01 01:04:40;;;;;;;2.93;2.40;;;;;;;4.17;100.00;93692.25;4346610;32;20200;-62
2023/12/01 01:07:06;;;;;;;3.10;2.90;;;;;;;4.29;100.00;93683.91;4322639;32;20209;-62
2023/12/01 01:09:37;;;;;;;2.73;2.63;;;;;;;4.12;100.00;93695.00;4327386;33;20205;-62
2023/12/01 01:12:04;;;;;;;4.60;3.73;;;;;;;4.04;100.00;93687.81;4302940;33;20317;-62
2023/12/01 01:14:30;;;;;;;2.83;2.60;;;;;;;4.08;100.00;93694.81;4319978;32;20320;-64
2023/12/01 01:16:58;;;;;;;2.23;2.07;;;;;;;4.10;100.00;93697.91;4332619;32;20315;-62
2023/12/01 01:19:25;;;;;;;3.00;2.80;;;;;;;4.00;100.00;93687.59;4334332;32;20286;-62
2023/12/01 01:21:53;;;;;;;2.93;2.83;;;;;;;4.00;100.00;93695.47;4323297;32;20366;-62
2023/12/01 01:24:19;;;;;;;2.57;2.47;;;;;;;4.06;100.00;93696.94;4321315;32;20292;-62
2023/12/01 01:26:46;;;;;;;2.50;2.40;;;;;;;4.10;100.00;93699.75;4326273;32;20321;-62
2023/12/01 01:29:12;;;;;;;3.00;2.90;;;;;;;4.05;100.00;93697.22;4327167;32;20300;-63
2023/12/01 01:31:39;;;;;;;2.30;2.20;;;;;;;4.16;100.00;93700.44;4314968;32;20290;-62
2023/12/01 01:34:05;;;;;;;2.80;2.60;;;;;;;4.18;100.00;93700.91;4341006;32;20224;-62
2023/12/01 01:36:31;;;;;;;2.37;2.27;;;;;;;4.17;100.00;93699.34;4357365;32;20281;-62
2023/12/01 01:38:58;;;;;;;2.07;1.97;;;;;;;4.28;100.00;93698.88;4343570;32;20299;-62
2023/12/01 01:41:25;;;;;;;2.20;2.10;;;;;;;4.04;100.00;93701.69;4343400;32;20327;-62
2023/12/01 01:43:53;;;;;;;3.57;2.77;;;;;;;4.17;100.00;93699.34;4357738;32;20295;-62
2023/12/01 01:46:26;;;;;;;2.90;2.70;;;;;;;4.11;100.00;93702.09;4343661;32;20298;-62
2023/12/01 01:48:54;;;;;;;3.30;3.10;;;;;;;4.42;100.00;93698.84;4336930;32;20323;-62
2023/12/01 01:51:21;;;;;;;3.33;3.13;;;;;;;4.30;100.00;93701.97;4309067;32;20387;-62
2023/12/01 01:53:49;;;;;;;3.57;3.33;;;;;;;4.20;100.00;93690.91;4321290;32;20301;-62
2023/12/01 01:56:16;;;;;;;2.77;2.57;;;;;;;4.10;100.00;93690.06;4336600;32;20300;-62
2023/12/01 01:58:43;;;;;;;3.20;3.10;;;;;;;4.18;100.00;93679.91;4296592;32;20295;-62
2023/12/01 02:01:10;;;;;;;2.73;2.63;;;;;;;4.14;100.00;93680.53;4327151;32;20328;-62
2023/12/01 02:03:41;;;;;;;2.00;1.93;;;;;;;4.04;100.00;93678.09;4338080;32;20284;-62
2023/12/01 02:06:07;;;;;;;2.40;2.20;;;;;;;4.10;100.00;93676.94;4324555;32;20289;-62
2023/12/01 02:08:34;;;;;;;2.10;2.00;;;;;;;3.98;100.00;93684.50;4308460;32;20282;-62
2023/12/01 02:11:04;;;;;;;2.23;2.13;;;;;;;4.11;100.00;93678.50;4323182;32;20282;-62
2023/12/01 02:13:32;;;;;;;1.30;1.30;;;;;;;4.10;100.00;93682.19;4350617;32;20292;-62
2023/12/01 02:16:00;;;;;;;1.77;1.67;;;;;;;4.19;100.00;93678.84;4329396;32;20289;-62
2023/12/01 02:18:30;;;;;;;3.00;2.80;;;;;;;4.30;100.00;93674.97;4341382;32;20292;-62
2023/12/01 02:20:57;;;;;;;1.93;1.73;;;;;;;4.14;100.00;93664.78;4266982;33;20317;-62
2023/12/01 02:23:24;;;;;;;1.73;1.63;;;;;;;4.11;100.00;93669.84;4293819;32;20320;-62
2023/12/01 02:25:51;;;;;;;1.87;1.80;;;;;;;4.10;100.00;93668.28;4303723;33;20286;-62
2023/12/01 02:28:18;;;;;;;2.17;2.07;;;;;;;4.26;100.00;93671.38;4320281;32;20277;-62
2023/12/01 02:30:50;;;;;;;1.50;1.50;;;;;;;4.21;100.00;93681.97;4345435;32;20307;-62
2023/12/01 02:33:18;;;;;;;2.17;1.97;;;;;;;4.15;100.00;93683.94;4307620;32;20309;-62
2023/12/01 02:35:51;;;;;;;1.20;1.20;;;;;;;4.16;100.00;93690.69;4314663;32;20281;-62
2023/12/01 02:38:19;;;;;;;1.83;1.73;;;;;;;4.44;100.00;93691.44;4336268;32;20281;-62
2023/12/01 02:40:49;;;;;;;2.13;2.03;;;;;;;4.43;100.00;93695.16;4325065;32;20294;-62
2023/12/01 02:43:18;;;;;;;2.97;2.73;;;;;;;4.20;100.00;93701.41;4354832;32;20342;-62
2023/12/01 02:45:46;;;;;;;2.63;2.53;;;;;;;4.35;100.00;93712.37;4357237;32;20345;-62
2023/12/01 02:48:14;;;;;;;3.53;1.77;;;;;;;4.21;100.00;93708.97;4314644;32;20332;-61
2023/12/01 02:50:40;;;;;;;4.80;2.50;;;;;;;4.39;100.00;93707.31;4351329;32;20300;-62
2023/12/01 02:53:06;;;;;;;2.03;1.93;;;;;;;4.36;100.00;93719.19;4345516;32;20334;-62
2023/12/01 02:55:32;;;;;;;2.00;1.90;;;;;;;4.38;100.00;93713.63;4334455;32;20304;-62
2023/12/01 02:57:59;;;;;;;2.00;1.93;;;;;;;4.42;100.00;93714.59;4340018;32;20281;-62
2023/12/01 03:00:29;;;;;;;1.83;1.83;;;;;;;4.39;100.00;93720.44;4339159;32;20300;-62
2023/12/01 03:02:56;;;;;;;1.43;1.43;;;;;;;4.42;100.00;93719.84;4287833;32;20304;-62
2023/12/01 03:05:22;;;;;;;1.93;1.83;;;;;;;4.34;100.00;93713.44;4350702;32;20293;-62
2023/12/01 03:07:49;;;;;;;3.47;3.20;;;;;;;4.46;100.00;93718.19;4357119;32;20356;-62
2023/12/01 03:10:24;;;;;;;2.60;1.90;;;;;;;4.23;100.00;93732.31;4346444;32;20224;-61
2023/12/01 03:12:51;;;;;;;5.83;1.77;;;;;;;4.34;100.00;93728.44;4333195;32;20289;-62
2023/12/01 03:15:18;;;;;;;1.93;1.83;;;;;;;4.34;100.00;93707.44;4335418;32;20288;-62
2023/12/01 03:17:43;;;;;;;2.00;1.90;;;;;;;4.39;100.00;93708.06;4283413;33;20290;-62
2023/12/01 03:20:11;;;;;;;4.10;2.33;;;;;;;4.37;100.00;93706.81;4340446;32;20277;-62
2023/12/01 03:22:38;;;;;;;2.07;1.87;;;;;;;4.30;100.00;93706.47;4274870;32;20295;-62
2023/12/01 03:25:11;;;;;;;3.13;2.47;;;;;;;4.39;100.00;93710.69;4261396;33;20304;-62
2023/12/01 03:27:40;;;;;;;2.20;2.10;;;;;;;4.39;100.00;93708.06;4321969;32;20293;-62
2023/12/01 03:30:15;;;;;;;1.87;1.80;;;;;;;4.11;100.00;93701.31;4344809;32;20292;-62
2023/12/01 03:32:45;;;;;;;3.07;2.40;;;;;;;4.37;100.00;93694.47;4335597;32;20279;-61
2023/12/01 03:35:15;;;;;;;2.07;1.97;;;;;;;4.51;100.00;93706.81;4339706;32;20281;-62
2023/12/01 03:37:41;;;;;;;3.50;2.07;;;;;;;4.31;100.00;93702.75;4311295;33;20289;-62
2023/12/01 03:40:12;;;;;;;2.37;2.23;;;;;;;4.27;100.00;93707.81;4311040;32;20277;-62
2023/12/01 03:42:41;;;;;;;1.30;1.30;;;;;;;4.36;100.00;93711.31;4309743;32;20307;-62
2023/12/01 03:45:12;;;;;;;2.33;2.23;;;;;;;4.45;100.00;93706.91;4344236;32;20324;-62
2023/12/01 03:47:48;;;;;;;1.63;1.53;;;;;;;4.49;100.00;93707.88;4316326;32;20299;-62
2023/12/01 03:50:18;;;;;;;1.43;1.43;;;;;;;4.48;100.00;93708.16;4290470;32;20297;-62
2023/12/01 03:52:46;;;;;;;2.60;2.50;;;;;;;4.49;100.00;93699.22;4328090;32;20297;-62
2023/12/01 03:55:12;;;;;;;2.43;2.33;;;;;;;4.41;100.00;93699.91;4309203;32;20305;-62
2023/12/01 03:57:43;;;;;;;2.33;2.23;;;;;;;4.61;100.00;93704.72;4327647;32;20297;-62
2023/12/01 04:00:14;;;;;;;1.53;1.47;;;;;;;4.49;100.00;93700.00;4358588;32;20330;-62
2023/12/01 04:02:45;;;;;;;3.17;2.07;;;;;;;4.62;100.00;93697.63;4344438;32;20315;-61
2023/12/01 04:05:17;;;;;;;2.67;2.53;;;;;;;4.44;100.00;93702.72;4336323;32;20285;-61
2023/12/01 04:07:53;;;;;;;2.70;2.60;;;;;;;4.59;100.00;93699.00;4324960;32;20307;-62
2023/12/01 04:10:20;;;;;;;2.27;2.17;;;;;;;4.67;100.00;93693.06;4319461;32;20282;-62
2023/12/01 04:12:47;;;;;;;2.57;2.47;;;;;;;4.67;100.00;93693.06;4316915;32;20404;-62
2023/12/01 04:15:18;;;;;;;2.00;1.90;;;;;;;4.57;100.00;93695.91;4345159;32;20307;-62
2023/12/01 04:17:48;;;;;;;1.53;1.53;;;;;;;4.65;100.00;93697.81;4352262;32;20292;-62
2023/12/01 04:20:35;;;;;;;1.43;1.43;;;;;;;4.67;100.00;93708.81;4326559;32;20324;-62
2023/12/01 04:23:03;;;;;;;3.33;3.13;;;;;;;4.69;100.00;93709.28;4348974;32;20312;-62
2023/12/01 04:25:30;;;;;;;2.00;1.93;;;;;;;4.72;100.00;93706.09;4333035;32;20285;-62
2023/12/01 04:27:58;;;;;;;4.23;3.00;;;;;;;4.62;100.00;93701.03;4346206;32;20282;-62
2023/12/01 04:30:26;;;;;;;2.83;2.73;;;;;;;4.63;100.00;93705.22;4312692;32;20301;-62
2023/12/01 04:32:56;;;;;;;2.90;2.80;;;;;;;4.63;100.00;93709.69;4336150;32;20281;-61
2023/12/01 04:35:24;;;;;;;2.47;2.37;;;;;;;4.73;100.00;93717.38;4329500;32;20306;-62
2023/12/01 04:37:51;;;;;;;3.70;3.40;;;;;;;4.45;100.00;93716.62;4329296;32;20376;-62
2023/12/01 04:40:17;;;;;;;2.90;2.33;;;;;;;4.41;100.00;93718.28;4328798;32;20388;-61
2023/12/01 04:42:51;;;;;;;1.83;1.77;;;;;;;4.45;100.00;93717.41;4333893;32;20293;-62
2023/12/01 04:45:21;;;;;;;1.90;1.80;;;;;;;4.55;100.00;93713.03;4347618;32;20265;-62
2023/12/01 04:47:51;;;;;;;2.30;2.20;;;;;;;4.40;100.00;93711.47;4334233;32;20305;-62
2023/12/01 04:50:30;;;;;;;1.97;1.87;;;;;;;4.46;100.00;93710.31;4347137;32;20330;-61
2023/12/01 04:52:57;;;;;;;2.03;1.90;;;;;;;4.63;100.00;93702.59;4347535;32;20293;-61
2023/12/01 04:55:24;;;;;;;2.70;2.50;;;;;;;4.53;100.00;93700.19;4351552;32;20292;-62
2023/12/01 04:57:50;;;;;;;2.87;2.77;;;;;;;4.65;100.00;93702.28;4357256;32;20322;-62
2023/12/01 05:00:21;;;;;;;5.13;2.60;;;;;;;4.54;100.00;93696.50;4347471;32;20324;-61
2023/12/01 05:02:58;;;;;;;2.63;2.53;;;;;;;4.64;100.00;93693.62;4360279;32;20201;-61
2023/12/01 05:05:29;;;;;;;1.53;1.53;;;;;;;4.61;100.00;93709.19;4347403;32;20311;-62
2023/12/01 05:07:57;;;;;;;3.07;2.87;;;;;;;4.38;100.00;93709.16;4346738;32;20311;-62
2023/12/01 05:10:24;;;;;;;1.83;1.83;;;;;;;4.29;100.00;93726.66;4360251;32;20280;-62
2023/12/01 05:12:51;;;;;;;2.80;2.60;;;;;;;4.14;100.00;93725.12;4360253;32;20352;-61
2023/12/01 05:15:22;;;;;;;1.50;1.50;;;;;;;4.14;100.00;93722.50;4360647;32;20282;-62
2023/12/01 05:17:50;;;;;;;1.77;1.77;;;;;;;4.16;100.00;93713.56;4347325;32;20348;-62
2023/12/01 05:20:17;;;;;;;2.43;2.33;;;;;;;4.16;100.00;93726.69;4360426;32;20340;-62
2023/12/01 05:22:44;;;;;;;1.03;1.03;;;;;;;4.12;100.00;93732.50;4347205;32;20281;-62
2023/12/01 05:25:13;;;;;;;2.40;2.20;;;;;;;4.17;100.00;93738.72;4358587;32;20316;-61
2023/12/01 05:27:49;;;;;;;2.20;2.03;;;;;;;4.16;100.00;93737.19;4352184;32;20273;-61
2023/12/01 05:30:17;;;;;;;2.07;1.97;;;;;;;4.06;100.00;93733.66;4359576;32;20291;-62
2023/12/01 05:32:44;;;;;;;1.73;1.63;;;;;;;4.10;100.00;93734.66;4345800;32;20285;-61
2023/12/01 05:35:10;;;;;;;2.03;2.00;;;;;;;4.13;100.00;93738.53;4348593;32;20315;-61
2023/12/01 05:37:41;;;;;;;1.93;1.83;;;;;;;4.08;100.00;93742.03;4345532;32;20341;-62
2023/12/01 05:40:14;;;;;;;1.33;1.33;;;;;;;4.10;100.00;93731.25;4359885;32;20432;-61
2023/12/01 05:42:41;;;;;;;1.10;1.10;;;;;;;3.95;100.00;93745.41;4360578;32;20284;-61
2023/12/01 05:45:11;;;;;;;1.80;1.70;;;;;;;3.79;100.00;93746.75;4353141;32;20281;-61
2023/12/01 05:47:46;;;;;;;1.47;1.37;;;;;;;3.85;100.00;93740.38;4350360;32;20400;-61
2023/12/01 05:50:17;;;;;;;1.07;1.07;;;;;;;3.74;100.00;93739.75;4346059;32;20288;-62
2023/12/01 05:52:45;;;;;;;1.50;1.50;;;;;;;3.68;100.00;93738.31;4345988;32;20281;-61
2023/12/01 05:55:15;;;;;;;2.00;1.87;;;;;;;3.70;100.00;93735.41;4345937;32;20358;-61
2023/12/01 05:57:45;;;;;;;1.00;1.00;;;;;;;3.62;100.00;93733.44;4359457;32;20297;-62
2023/12/01 06:00:20;;;;;;;1.33;1.27;;;;;;;3.70;100.00;93740.66;4346608;32;20281;-61
2023/12/01 06:02:46;;;;;;;1.20;1.20;;;;;;;3.75;100.00;93727.41;4359795;32;20285;-61
2023/12/01 06:05:13;;;;;;;1.83;1.73;;;;;;;3.55;100.00;93727.78;4360304;32;20281;-62
2023/12/01 06:07:42;;;;;;;1.13;1.13;;;;;;;3.80;100.00;93735.97;4348239;32;20344;-61
2023/12/01 06:10:08;;;;;;;1.40;1.40;;;;;;;3.88;100.00;93736.37;4359397;32;20328;-61
2023/12/01 06:12:33;;;;;;;1.47;1.37;;;;;;;3.84;100.00;93741.44;4345382;32;20403;-62
2023/12/01 06:14:59;;;;;;;1.43;1.43;;;;;;;3.90;100.00;93740.28;4348200;32;20288;-61
2023/12/01 06:17:24;;;;;;;1.37;1.37;;;;;;;4.07;100.00;93740.47;4345708;32;20197;-61
2023/12/01 06:19:49;;;;;;;1.40;1.30;;;;;;;3.90;100.00;93742.91;4346196;32;22794;-61
2023/12/01 06:22:15;;;;;;;1.57;1.57;;;;;;;3.89;100.00;93746.59;4359487;32;20255;-61
2023/12/01 06:24:40;;;;;;;1.00;1.00;;;;;;;3.64;100.00;93733.91;4361797;32;20192;-62
2023/12/01 06:27:06;;;;;;;0.67;0.67;;;;;;;3.86;100.00;93728.81;4348560;32;20228;-61
2023/12/01 06:29:32;;;;;;;0.80;0.80;;;;;;;4.00;100.00;93740.06;4345936;32;20190;-62
2023/12/01 06:31:57;;;;;;;2.07;1.87;;;;;;;4.02;100.00;93739.78;4343736;32;20304;-62
2023/12/01 06:34:23;;;;;;;1.03;0.83;;;;;;;3.81;100.00;93739.38;4344383;32;20189;-62
2023/12/01 06:36:48;;;;;;;1.63;1.53;;;;;;;4.07;100.00;93743.09;4347512;32;20207;-61
2023/12/01 06:39:13;;;;;;;1.40;1.30;;;;;;;3.99;100.00;93749.00;4341913;32;20201;-62
2023/12/01 06:41:41;;;;;;;1.40;1.40;;;;;;;4.12;100.00;93729.88;4344395;32;20197;-62
2023/12/01 06:44:07;;;;;;;1.60;1.50;;;;;;;4.10;100.00;93742.53;4358772;32;20299;-62
2023/12/01 06:46:32;;;;;;;1.10;1.10;;;;;;;3.99;100.00;93735.13;4358795;32;20277;-61
2023/12/01 06:48:58;;;;;;;1.47;1.47;;;;;;;3.72;100.00;93738.50;4350669;32;20284;-62
2023/12/01 06:51:24;;;;;;;1.20;1.20;;;;;;;3.80;100.00;93745.69;4354746;32;20248;-61
2023/12/01 06:53:49;;;;;;;2.07;1.90;;;;;;;4.03;100.00;93739.50;4350448;32;20254;-62
2023/12/01 06:56:14;;;;;;;2.43;1.30;;;;;;;3.92;100.00;93743.37;4344443;32;20223;-61
2023/12/01 06:58:39;;;;;;;1.03;1.03;;;;;;;3.69;100.00;93739.09;4346581;32;20262;-61
2023/12/01 07:01:05;;;;;;;1.20;0.90;;;;;;;3.86;100.00;93757.66;4344509;32;20224;-62
2023/12/01 07:03:30;;;;;;;0.80;0.80;;;;;;;3.98;100.00;93763.19;4344386;32;20204;-62
2023/12/01 07:05:56;;;;;;;0.90;0.90;;;;;;;3.76;100.00;93770.94;4346284;32;20181;-62
2023/12/01 07:08:21;;;;;;;1.23;1.23;;;;;;;3.65;100.00;93765.09;4345968;32;20197;-62
2023/12/01 07:10:47;;;;;;;0.97;0.97;;;;;;;3.72;100.00;93769.97;4359067;32;20189;-62
2023/12/01 07:13:12;;;;;;;1.60;1.53;;;;;;;3.68;100.00;93769.00;4357744;32;20212;-62
2023/12/01 07:15:38;;;;;;;0.97;0.97;;;;;;;3.56;100.00;93771.28;4357684;32;20196;-62
2023/12/01 07:18:08;;;;;;;1.20;1.20;;;;;;;3.81;100.00;93770.84;4357621;32;20251;-61
2023/12/01 07:20:33;;;;;;;1.10;1.10;;;;;;;4.02;100.00;93774.66;4355182;32;20208;-62
2023/12/01 07:22:59;;;;;;;1.33;1.33;;;;;;;4.04;100.00;93772.53;4358136;32;20277;-62
2023/12/01 07:25:25;;;;;;;18.93;1.87;;;;;;;3.85;100.00;93779.69;4343155;32;20193;-60
2023/12/01 07:27:56;;;;;;;1.30;1.30;;;;;;;7.42;100.00;93774.25;4358015;32;20260;-60
2023/12/01 07:30:22;;;;;;;0.63;0.63;;;;;;;8.88;100.00;93773.03;4351746;32;20289;-60
2023/12/01 07:32:49;;;;;;;0.40;0.40;;;;;;;9.44;93.41;93778.09;4344544;32;20289;-60
2023/12/01 07:35:15;;;;;;;0.47;0.47;;;;;;;9.79;83.69;93783.84;4359561;32;20216;-60
2023/12/01 07:37:45;;;;;;;0.73;0.70;;;;;;;9.98;79.82;93779.59;4345454;32;20268;-67
2023/12/01 07:40:11;;;;;;;0.80;0.80;;;;;;;10.52;76.45;93776.88;4360216;32;20235;-66
2023/12/01 07:42:40;;;;;;;0.50;0.50;;;;;;;10.36;73.37;93777.88;4361711;32;20248;-67
2023/12/01 07:45:06;;;;;;;1.00;1.00;;;;;;;10.51;72.95;93787.81;4353395;32;20254;-66
2023/12/01 07:47:32;;;;;;;0.30;0.30;;;;;;;10.24;70.75;93782.03;4351035;32;20231;-67
2023/12/01 07:49:59;;;;;;;0.40;0.40;;;;;;;10.76;69.84;93772.69;4364448;32;20180;-67
2023/12/01 07:52:24;;;;;;;1.23;1.17;;;;;;;10.37;68.23;93790.00;4356659;32;20329;-67
2023/12/01 07:54:49;;;;;;;0.80;0.27;;;;;;;10.11;68.64;93796.31;4362167;32;20204;-67
2023/12/01 07:57:15;;;;;;;1.00;1.00;;;;;;;10.46;68.88;93804.69;4347801;32;20204;-67
2023/12/01 07:59:40;;;;;;;4.40;1.00;;;;;;;10.73;67.70;93792.69;4361047;32;20231;-67
2023/12/01 08:02:05;;;;;;;2.03;1.93;;;;;;;11.36;83.20;93787.75;4361564;32;20299;-66
2023/12/01 08:04:31;;;;;;;0.80;0.80;;;;;;;10.76;75.26;93801.88;4361594;32;20189;-65
2023/12/01 08:06:57;;;;;;;0.87;0.87;;;;;;;9.71;68.72;93792.66;4363605;32;20192;-67
2023/12/01 08:09:24;;;;;;;2.73;0.50;;;;;;;8.86;71.50;93804.31;4355122;32;20200;-65
2023/12/01 08:11:49;;;;;;;0.70;0.70;;;;;;;7.72;76.42;93819.22;4361459;32;20219;-66
2023/12/01 08:14:15;;;;;;;2.47;1.37;;;;;;;7.12;79.24;93809.44;4353706;32;20193;-65
2023/12/01 08:16:42;;;;;;;0.40;0.40;;;;;;;6.36;83.74;93816.84;4347581;32;20193;-66
2023/12/01 08:19:09;;;;;;;0.77;0.77;;;;;;;6.22;84.19;93819.56;4347105;32;20189;-65
2023/12/01 08:21:35;;;;;;;2.17;1.40;;;;;;;5.56;90.37;93817.75;4347458;32;20317;-65
2023/12/01 08:24:01;;;;;;;0.60;0.60;;;;;;;5.40;91.76;93823.31;4356263;32;20301;-65
2023/12/01 08:26:26;;;;;;;0.33;0.33;;;;;;;5.54;91.76;93828.56;4357424;32;20304;-66
2023/12/01 08:28:53;;;;;;;1.40;1.30;;;;;;;5.24;93.48;93832.63;4361269;32;20193;-66
2023/12/01 08:31:19;;;;;;;1.37;1.37;;;;;;;5.12;94.42;93842.91;4347729;32;20193;-66
2023/12/01 08:33:44;;;;;;;1.30;1.20;;;;;;;5.07;95.63;93832.47;4347680;32;20303;-67
2023/12/01 08:36:10;;;;;;;1.20;0.73;;;;;;;5.08;95.60;93828.78;4353101;32;20247;-67
2023/12/01 08:38:35;;;;;;;0.93;0.90;;;;;;;4.98;96.32;93821.13;4356643;32;20237;-66
2023/12/01 08:41:01;;;;;;;0.83;0.83;;;;;;;5.16;95.79;93815.72;4360772;32;20308;-66
2023/12/01 08:43:26;;;;;;;0.80;0.80;;;;;;;5.07;95.69;93819.34;4362649;32;20243;-68
2023/12/01 08:45:51;;;;;;;2.33;1.33;;;;;;;4.99;96.25;93825.31;4360790;32;20236;-68
2023/12/01 08:48:17;;;;;;;5.40;1.70;;;;;;;5.00;96.55;93838.12;4360886;32;20265;-66
2023/12/01 08:50:44;;;;;;;1.07;1.07;;;;;;;5.13;96.60;93833.94;4346458;32;20201;-66
2023/12/01 08:53:09;;;;;;;2.73;1.40;;;;;;;5.28;95.82;93820.44;4344740;32;20217;-66
2023/12/01 08:55:35;;;;;;;1.23;1.23;;;;;;;5.38;94.69;93819.47;4348534;32;20302;-66
2023/12/01 08:58:00;;;;;;;1.40;1.40;;;;;;;5.46;94.56;93821.38;4347347;32;20196;-67
2023/12/01 09:00:25;;;;;;;1.83;1.23;;;;;;;5.54;94.56;93831.19;4346661;32;20304;-67
2023/12/01 09:02:52;;;;;;;1.80;1.70;;;;;;;5.67;94.93;93840.09;4347147;32;20292;-66
2023/12/01 09:05:17;;;;;;;2.00;1.50;;;;;;;5.91;93.89;93827.44;4346295;32;20236;-65
2023/12/01 09:07:46;;;;;;;0.90;0.90;;;;;;;6.03;92.66;93835.53;4359934;32;20319;-64
2023/12/01 09:10:13;;;;;;;1.63;1.53;;;;;;;6.40;91.12;93837.00;4356841;32;20197;-65
2023/12/01 09:12:38;;;;;;;1.17;1.17;;;;;;;6.73;89.23;93836.63;4342558;32;20348;-65
2023/12/01 09:15:05;;;;;;;1.00;1.00;;;;;;;6.72;87.72;93840.34;4342784;32;20336;-65
2023/12/01 09:17:31;;;;;;;1.10;1.10;;;;;;;6.93;87.80;93841.34;4343376;32;20193;-66
2023/12/01 09:19:57;;;;;;;1.20;1.20;;;;;;;6.47;89.20;93845.22;4298641;32;20289;-66
2023/12/01 09:22:25;;;;;;;1.50;1.47;;;;;;;6.61;88.74;93853.03;4315738;32;20226;-66
2023/12/01 09:24:53;;;;;;;1.07;1.07;;;;;;;7.13;86.55;93847.91;4311554;32;20194;-65
2023/12/01 09:27:19;;;;;;;1.23;1.23;;;;;;;6.79;88.00;93865.19;4261487;32;20286;-65
2023/12/01 09:29:47;;;;;;;1.40;1.40;;;;;;;6.72;88.47;93866.72;4316926;32;20248;-66
2023/12/01 09:32:13;;;;;;;1.87;1.70;;;;;;;6.45;89.07;93865.81;4307536;32;20221;-65
2023/12/01 09:34:39;;;;;;;0.70;0.70;;;;;;;6.64;88.99;93860.34;4327923;32;20226;-66
2023/12/01 09:37:07;;;;;;;0.60;0.60;;;;;;;6.60;88.68;93854.12;4310760;32;20203;-65
2023/12/01 09:39:39;;;;;;;1.00;1.00;;;;;;;7.09;86.76;93852.22;4306146;32;20306;-65
2023/12/01 09:42:06;;;;;;;2.67;1.70;;;;;;;7.05;85.98;93851.31;4294549;32;20245;-65
2023/12/01 09:44:33;;;;;;;0.93;0.93;;;;;;;7.35;85.71;93844.38;4306653;32;20194;-65
2023/12/01 09:47:04;;;;;;;1.10;1.10;;;;;;;7.26;85.83;93833.81;4278498;32;20197;-65
2023/12/01 09:49:35;;;;;;;1.40;1.30;;;;;;;6.78;85.91;93829.38;4293826;32;20193;-65
2023/12/01 09:52:04;;;;;;;1.27;1.27;;;;;;;6.84;86.46;93830.03;4328698;32;20194;-65
2023/12/01 09:54:30;;;;;;;0.83;0.83;;;;;;;7.10;85.42;93830.06;4343099;32;20185;-66
2023/12/01 09:57:04;;;;;;;1.60;1.50;;;;;;;6.98;84.98;93816.72;4344508;32;20211;-67
2023/12/01 09:59:29;;;;;;;0.60;0.60;;;;;;;6.59;86.98;93825.44;4352948;32;20200;-67
2023/12/01 10:01:55;;;;;;;1.27;1.23;;;;;;;6.66;87.49;93818.63;4351111;32;20259;-66
2023/12/01 10:04:20;;;;;;;3.13;1.83;;;;;;;6.51;87.41;93809.28;4360430;32;20315;-66
2023/12/01 10:06:47;;;;;;;1.30;1.23;;;;;;;6.30;89.02;93810.13;4359465;32;20188;-66
2023/12/01 10:09:12;;;;;;;1.10;1.10;;;;;;;6.26;89.92;93806.56;4336623;32;20178;-66
2023/12/01 10:11:38;;;;;;;1.80;1.70;;;;;;;5.85;91.60;93799.66;4355227;32;20401;-65
2023/12/01 10:14:06;;;;;;;2.53;2.37;;;;;;;5.85;91.73;93797.03;4344016;32;20193;-64
2023/12/01 10:16:38;;;;;;;1.60;1.50;;;;;;;5.79;92.30;93798.25;4351365;32;20246;-65
2023/12/01 10:19:05;;;;;;;1.43;1.43;;;;;;;5.64;93.51;93802.00;4345664;32;20303;-65
2023/12/01 10:21:42;;;;;;;1.63;1.53;;;;;;;5.91;92.24;93800.34;4359959;32;20281;-64
2023/12/01 10:24:21;;;;;;;1.83;1.60;;;;;;;5.89;92.79;93794.59;4359815;32;20346;-66
2023/12/01 10:26:52;;;;;;;3.47;2.20;;;;;;;5.80;93.24;93795.31;4357818;32;20371;-66
2023/12/01 10:29:32;;;;;;;1.17;1.17;;;;;;;5.95;92.40;93796.81;4358990;32;20368;-66
2023/12/01 10:32:03;;;;;;;2.30;1.83;;;;;;;5.73;92.46;93799.44;4341333;32;20351;-65
2023/12/01 10:34:29;;;;;;;2.00;1.90;;;;;;;5.48;93.20;93796.31;4354010;32;20328;-66
2023/12/01 10:36:55;;;;;;;1.87;1.77;;;;;;;5.15;95.70;93795.78;4358222;32;20277;-66
2023/12/01 10:39:30;;;;;;;2.63;2.40;;;;;;;5.43;94.93;93800.91;4356454;32;20281;-66
2023/12/01 10:41:57;;;;;;;1.83;1.83;;;;;;;5.19;95.43;93790.72;4352370;32;20218;-67
2023/12/01 10:44:26;;;;;;;1.63;1.53;;;;;;;5.47;94.33;93794.78;4357380;32;20289;-66
2023/12/01 10:46:53;;;;;;;1.90;1.90;;;;;;;5.76;93.09;93799.63;4350360;32;20299;-66
2023/12/01 10:49:20;;;;;;;1.80;1.70;;;;;;;5.75;93.33;93813.06;4353294;32;20308;-65
2023/12/01 10:51:46;;;;;;;1.60;1.50;;;;;;;5.81;93.15;93802.13;4343859;32;20303;-66
2023/12/01 10:54:14;;;;;;;1.87;1.77;;;;;;;5.91;92.55;93805.59;4358271;32;20351;-66
2023/12/01 10:56:58;;;;;;;2.63;2.50;;;;;;;6.05;91.29;93806.28;4346289;32;20335;-66
2023/12/01 10:59:28;;;;;;;1.93;1.73;;;;;;;6.02;91.72;93818.22;4332082;32;20280;-64
2023/12/01 11:01:58;;;;;;;2.13;1.93;;;;;;;5.70;93.25;93810.56;4359646;32;20292;-65
2023/12/01 11:04:26;;;;;;;0.97;0.97;;;;;;;5.87;92.47;93793.00;4341603;32;20277;-65
2023/12/01 11:07:29;;;;;;;2.13;1.93;;;;;;;5.67;93.04;93784.84;4341203;32;20363;-67
2023/12/01 11:10:01;;;;;;;1.43;1.43;;;;;;;5.94;91.75;93768.16;4360816;32;20289;-65
2023/12/01 11:12:34;;;;;;;1.53;1.53;;;;;;;5.76;92.34;93772.53;4343586;32;20338;-66
2023/12/01 11:15:11;;;;;;;1.40;1.40;;;;;;;5.96;91.42;93760.75;4352758;32;20289;-65
2023/12/01 11:17:37;;;;;;;1.73;1.63;;;;;;;5.69;91.66;93772.94;4348548;32;20587;-68
2023/12/01 11:20:41;;;;;;;1.57;1.57;;;;;;;5.70;91.69;93773.72;4358429;32;20285;-66
2023/12/01 11:23:12;;;;;;;2.10;2.00;;;;;;;5.28;93.21;93765.25;4345811;32;20281;-68
2023/12/01 11:29:17;;;;;;;1.57;1.57;;;;;;;5.56;92.78;93767.78;4356072;32;20356;-67
2023/12/01 11:31:50;;;;;;;1.97;1.80;;;;;;;5.37;93.20;93760.84;4350805;32;20297;-68
2023/12/01 11:34:15;;;;;;;1.87;1.83;;;;;;;5.52;93.48;93768.38;4361812;32;20285;-67
2023/12/01 11:36:50;;;;;;;2.40;2.20;;;;;;;5.29;94.05;93761.53;4344436;32;20349;-67
2023/12/01 11:39:31;;;;;;;6.17;2.60;;;;;;;5.24;94.23;93760.88;4329548;32;20192;-67
2023/12/01 11:42:16;;;;;;;3.03;2.00;;;;;;;5.32;94.15;93755.69;4275052;32;20341;-66
2023/12/01 11:44:43;;;;;;;3.10;2.83;;;;;;;5.41;93.66;93761.00;4314913;32;20285;-66